sensor_id;sensor_type;location;lat;lon;timestamp;P1;durP1;ratioP1;P2;durP2;ratioP2
757;SDS011;363;48.764;9.172;2023-11-22T00:02:21;9.30;;;6.50;;
757;SDS011;363;48.764;9.172;2023-11-22T00:04:47;11.43;;;8.00;;
757;SDS011;363;48.764;9.172;2023-11-22T00:07:12;8.40;;;7.13;;
757;SDS011;363;48.764;9.172;2023-11-22T00:09:38;10.43;;;7.73;;
757;SDS011;363;48.764;9.172;2023-11-22T00:12:04;8.57;;;5.77;;
757;SDS011;363;48.764;9.172;2023-11-22T00:14:30;4.27;;;3.87;;
757;SDS011;363;48.764;9.172;2023-11-22T00:16:55;3.70;;;3.30;;
757;SDS011;363;48.764;9.172;2023-11-22T00:19:21;4.10;;;2.97;;
757;SDS011;363;48.764;9.172;2023-11-22T00:21:48;4.57;;;3.03;;
757;SDS011;363;48.764;9.172;2023-11-22T00:24:14;4.00;;;3.60;;
757;SDS011;363;48.764;9.172;2023-11-22T00:26:39;3.40;;;3.10;;
757;SDS011;363;48.764;9.172;2023-11-22T00:29:06;3.63;;;3.28;;
757;SDS011;363;48.764;9.172;2023-11-22T00:31:31;3.60;;;3.30;;
757;SDS011;363;48.764;9.172;2023-11-22T00:33:57;3.77;;;3.37;;
757;SDS011;363;48.764;9.172;2023-11-22T00:36:22;3.83;;;3.53;;
757;SDS011;363;48.764;9.172;2023-11-22T00:38:48;4.40;;;4.00;;
757;SDS011;363;48.764;9.172;2023-11-22T00:41:13;4.23;;;3.63;;
757;SDS011;363;48.764;9.172;2023-11-22T00:43:42;4.05;;;3.65;;
757;SDS011;363;48.764;9.172;2023-11-22T00:46:07;4.37;;;3.97;;
757;SDS011;363;48.764;9.172;2023-11-22T00:48:33;4.40;;;3.30;;
757;SDS011;363;48.764;9.172;2023-11-22T00:50:58;4.43;;;4.03;;
757;SDS011;363;48.764;9.172;2023-11-22T00:53:24;4.20;;;3.80;;
757;SDS011;363;48.764;9.172;2023-11-22T00:55:50;5.13;;;3.87;;
757;SDS011;363;48.764;9.172;2023-11-22T00:58:15;4.97;;;4.43;;
757;SDS011;363;48.764;9.172;2023-11-22T01:00:41;5.43;;;4.60;;
757;SDS011;363;48.764;9.172;2023-11-22T01:03:06;4.70;;;4.23;;
757;SDS011;363;48.764;9.172;2023-11-22T01:05:36;5.57;;;4.47;;
757;SDS011;363;48.764;9.172;2023-11-22T01:08:02;4.73;;;4.20;;
757;SDS011;363;48.764;9.172;2023-11-22T01:10:28;5.10;;;4.47;;
757;SDS011;363;48.764;9.172;2023-11-22T01:12:53;7.30;;;5.97;;
757;SDS011;363;48.764;9.172;2023-11-22T01:15:19;6.17;;;5.17;;
757;SDS011;363;48.764;9.172;2023-11-22T01:17:44;5.03;;;4.53;;
757;SDS011;363;48.764;9.172;2023-11-22T01:20:10;5.00;;;4.43;;
757;SDS011;363;48.764;9.172;2023-11-22T01:22:36;5.50;;;5.00;;
757;SDS011;363;48.764;9.172;2023-11-22T01:25:03;4.45;;;4.05;;
757;SDS011;363;48.764;9.172;2023-11-22T01:27:29;5.72;;;5.10;;
757;SDS011;363;48.764;9.172;2023-11-22T01:29:55;4.43;;;3.70;;
757;SDS011;363;48.764;9.172;2023-11-22T01:32:20;4.70;;;4.20;;
757;SDS011;363;48.764;9.172;2023-11-22T01:34:46;6.37;;;4.63;;
757;SDS011;363;48.764;9.172;2023-11-22T01:37:11;6.03;;;5.13;;
757;SDS011;363;48.764;9.172;2023-11-22T01:39:39;4.80;;;4.17;;
757;SDS011;363;48.764;9.172;2023-11-22T01:42:06;5.60;;;4.55;;
757;SDS011;363;48.764;9.172;2023-11-22T01:44:32;6.00;;;4.90;;
757;SDS011;363;48.764;9.172;2023-11-22T01:46:57;5.20;;;4.70;;
757;SDS011;363;48.764;9.172;2023-11-22T01:49:23;5.23;;;4.50;;
757;SDS011;363;48.764;9.172;2023-11-22T01:51:49;5.07;;;4.57;;
757;SDS011;363;48.764;9.172;2023-11-22T01:54:14;6.77;;;4.93;;
757;SDS011;363;48.764;9.172;2023-11-22T01:56:42;4.45;;;3.90;;
757;SDS011;363;48.764;9.172;2023-11-22T01:59:07;6.03;;;4.77;;
757;SDS011;363;48.764;9.172;2023-11-22T02:01:33;5.20;;;4.70;;
757;SDS011;363;48.764;9.172;2023-11-22T02:03:59;4.72;;;4.15;;
757;SDS011;363;48.764;9.172;2023-11-22T02:06:26;5.50;;;4.65;;
757;SDS011;363;48.764;9.172;2023-11-22T02:08:52;4.60;;;4.05;;
757;SDS011;363;48.764;9.172;2023-11-22T02:11:18;4.13;;;3.60;;
757;SDS011;363;48.764;9.172;2023-11-22T02:13:50;5.18;;;4.07;;
757;SDS011;363;48.764;9.172;2023-11-22T02:16:16;4.95;;;4.30;;
757;SDS011;363;48.764;9.172;2023-11-22T02:18:46;4.18;;;3.63;;
757;SDS011;363;48.764;9.172;2023-11-22T02:21:13;4.80;;;4.30;;
757;SDS011;363;48.764;9.172;2023-11-22T02:23:40;4.78;;;3.50;;
757;SDS011;363;48.764;9.172;2023-11-22T02:26:07;4.03;;;3.63;;
757;SDS011;363;48.764;9.172;2023-11-22T02:28:33;5.30;;;4.80;;
757;SDS011;363;48.764;9.172;2023-11-22T02:30:58;4.90;;;4.03;;
757;SDS011;363;48.764;9.172;2023-11-22T02:33:24;3.87;;;3.40;;
757;SDS011;363;48.764;9.172;2023-11-22T02:35:50;4.13;;;3.73;;
757;SDS011;363;48.764;9.172;2023-11-22T02:38:15;4.00;;;3.50;;
757;SDS011;363;48.764;9.172;2023-11-22T02:40:43;4.75;;;4.05;;
757;SDS011;363;48.764;9.172;2023-11-22T02:43:09;3.53;;;3.10;;
757;SDS011;363;48.764;9.172;2023-11-22T02:45:36;4.47;;;3.53;;
757;SDS011;363;48.764;9.172;2023-11-22T02:48:02;4.23;;;3.73;;
757;SDS011;363;48.764;9.172;2023-11-22T02:50:28;4.93;;;3.85;;
757;SDS011;363;48.764;9.172;2023-11-22T02:52:58;4.45;;;3.75;;
757;SDS011;363;48.764;9.172;2023-11-22T02:55:24;4.15;;;3.75;;
757;SDS011;363;48.764;9.172;2023-11-22T02:57:50;5.43;;;4.10;;
757;SDS011;363;48.764;9.172;2023-11-22T03:00:16;7.47;;;4.13;;
757;SDS011;363;48.764;9.172;2023-11-22T03:02:45;5.50;;;4.05;;
757;SDS011;363;48.764;9.172;2023-11-22T03:05:12;4.50;;;4.10;;
757;SDS011;363;48.764;9.172;2023-11-22T03:07:38;4.97;;;3.88;;
757;SDS011;363;48.764;9.172;2023-11-22T03:10:05;4.70;;;4.30;;
757;SDS011;363;48.764;9.172;2023-11-22T03:12:32;5.20;;;4.13;;
757;SDS011;363;48.764;9.172;2023-11-22T03:14:58;4.33;;;3.93;;
757;SDS011;363;48.764;9.172;2023-11-22T03:17:27;4.57;;;3.97;;
757;SDS011;363;48.764;9.172;2023-11-22T03:19:55;4.93;;;4.43;;
757;SDS011;363;48.764;9.172;2023-11-22T03:22:25;4.25;;;3.85;;
757;SDS011;363;48.764;9.172;2023-11-22T03:24:51;5.10;;;4.60;;
757;SDS011;363;48.764;9.172;2023-11-22T03:27:17;4.30;;;3.88;;
757;SDS011;363;48.764;9.172;2023-11-22T03:29:43;5.33;;;4.00;;
757;SDS011;363;48.764;9.172;2023-11-22T03:32:09;4.75;;;4.20;;
757;SDS011;363;48.764;9.172;2023-11-22T03:34:36;5.00;;;3.70;;
757;SDS011;363;48.764;9.172;2023-11-22T03:37:01;4.43;;;4.03;;
757;SDS011;363;48.764;9.172;2023-11-22T03:39:27;3.90;;;3.50;;
757;SDS011;363;48.764;9.172;2023-11-22T03:41:53;4.10;;;3.67;;
757;SDS011;363;48.764;9.172;2023-11-22T03:44:18;3.90;;;3.57;;
757;SDS011;363;48.764;9.172;2023-11-22T03:46:44;4.27;;;3.87;;
757;SDS011;363;48.764;9.172;2023-11-22T03:49:09;4.67;;;4.27;;
757;SDS011;363;48.764;9.172;2023-11-22T03:51:35;3.80;;;3.40;;
757;SDS011;363;48.764;9.172;2023-11-22T03:54:02;4.13;;;3.72;;
757;SDS011;363;48.764;9.172;2023-11-22T03:56:28;4.68;;;3.90;;
757;SDS011;363;48.764;9.172;2023-11-22T03:58:54;5.32;;;4.28;;
757;SDS011;363;48.764;9.172;2023-11-22T04:01:20;3.90;;;3.50;;
757;SDS011;363;48.764;9.172;2023-11-22T04:03:46;4.70;;;3.93;;
757;SDS011;363;48.764;9.172;2023-11-22T04:06:13;4.50;;;4.10;;
757;SDS011;363;48.764;9.172;2023-11-22T04:08:43;3.95;;;3.33;;
757;SDS011;363;48.764;9.172;2023-11-22T04:11:12;4.25;;;3.83;;
757;SDS011;363;48.764;9.172;2023-11-22T04:13:38;5.65;;;4.80;;
757;SDS011;363;48.764;9.172;2023-11-22T04:16:04;4.50;;;4.07;;
757;SDS011;363;48.764;9.172;2023-11-22T04:18:33;4.80;;;4.30;;
757;SDS011;363;48.764;9.172;2023-11-22T04:21:05;5.63;;;5.03;;
757;SDS011;363;48.764;9.172;2023-11-22T04:23:31;5.07;;;4.30;;
757;SDS011;363;48.764;9.172;2023-11-22T04:25:58;5.10;;;4.20;;
757;SDS011;363;48.764;9.172;2023-11-22T04:28:24;5.10;;;4.60;;
757;SDS011;363;48.764;9.172;2023-11-22T04:30:50;5.18;;;4.63;;
757;SDS011;363;48.764;9.172;2023-11-22T04:33:17;6.75;;;4.32;;
757;SDS011;363;48.764;9.172;2023-11-22T04:35:42;4.73;;;4.30;;
757;SDS011;363;48.764;9.172;2023-11-22T04:38:08;4.97;;;4.47;;
757;SDS011;363;48.764;9.172;2023-11-22T04:40:33;5.97;;;4.00;;
757;SDS011;363;48.764;9.172;2023-11-22T04:42:59;5.07;;;4.00;;
757;SDS011;363;48.764;9.172;2023-11-22T04:45:25;6.20;;;4.40;;
757;SDS011;363;48.764;9.172;2023-11-22T04:47:50;4.77;;;4.27;;
757;SDS011;363;48.764;9.172;2023-11-22T04:50:16;6.53;;;3.93;;
757;SDS011;363;48.764;9.172;2023-11-22T04:52:42;5.90;;;4.28;;
757;SDS011;363;48.764;9.172;2023-11-22T04:55:08;4.80;;;4.00;;
757;SDS011;363;48.764;9.172;2023-11-22T04:57:34;4.55;;;4.05;;
757;SDS011;363;48.764;9.172;2023-11-22T04:59:59;4.80;;;3.80;;
757;SDS011;363;48.764;9.172;2023-11-22T05:02:25;4.73;;;4.23;;
757;SDS011;363;48.764;9.172;2023-11-22T05:04:52;4.40;;;4.00;;
757;SDS011;363;48.764;9.172;2023-11-22T05:07:18;4.72;;;4.30;;
757;SDS011;363;48.764;9.172;2023-11-22T05:09:46;5.40;;;4.50;;
757;SDS011;363;48.764;9.172;2023-11-22T05:12:12;4.10;;;3.57;;
757;SDS011;363;48.764;9.172;2023-11-22T05:14:37;3.80;;;3.50;;
757;SDS011;363;48.764;9.172;2023-11-22T05:17:03;5.10;;;4.60;;
757;SDS011;363;48.764;9.172;2023-11-22T05:19:29;4.50;;;4.10;;
757;SDS011;363;48.764;9.172;2023-11-22T05:21:56;4.70;;;4.30;;
757;SDS011;363;48.764;9.172;2023-11-22T05:24:22;5.20;;;4.70;;
757;SDS011;363;48.764;9.172;2023-11-22T05:26:47;5.63;;;4.93;;
757;SDS011;363;48.764;9.172;2023-11-22T05:29:13;5.53;;;4.63;;
757;SDS011;363;48.764;9.172;2023-11-22T05:31:38;4.60;;;4.13;;
757;SDS011;363;48.764;9.172;2023-11-22T05:34:04;5.80;;;4.40;;
757;SDS011;363;48.764;9.172;2023-11-22T05:36:29;4.10;;;3.70;;
757;SDS011;363;48.764;9.172;2023-11-22T05:38:55;6.30;;;4.73;;
757;SDS011;363;48.764;9.172;2023-11-22T05:41:23;4.75;;;4.22;;
757;SDS011;363;48.764;9.172;2023-11-22T05:43:50;4.18;;;3.78;;
757;SDS011;363;48.764;9.172;2023-11-22T05:46:17;4.97;;;4.13;;
757;SDS011;363;48.764;9.172;2023-11-22T05:48:46;4.25;;;3.85;;
757;SDS011;363;48.764;9.172;2023-11-22T05:51:15;3.78;;;3.38;;
757;SDS011;363;48.764;9.172;2023-11-22T05:53:42;4.95;;;4.43;;
757;SDS011;363;48.764;9.172;2023-11-22T05:56:07;5.37;;;4.40;;
757;SDS011;363;48.764;9.172;2023-11-22T05:58:33;5.15;;;4.50;;
757;SDS011;363;48.764;9.172;2023-11-22T06:01:03;4.60;;;3.97;;
757;SDS011;363;48.764;9.172;2023-11-22T06:03:31;4.40;;;3.65;;
757;SDS011;363;48.764;9.172;2023-11-22T06:05:58;4.20;;;3.72;;
757;SDS011;363;48.764;9.172;2023-11-22T06:08:24;4.13;;;3.73;;
757;SDS011;363;48.764;9.172;2023-11-22T06:10:49;4.20;;;3.80;;
757;SDS011;363;48.764;9.172;2023-11-22T06:13:16;4.68;;;4.25;;
757;SDS011;363;48.764;9.172;2023-11-22T06:15:42;4.23;;;3.83;;
757;SDS011;363;48.764;9.172;2023-11-22T06:18:07;5.20;;;4.70;;
757;SDS011;363;48.764;9.172;2023-11-22T06:20:33;4.63;;;4.13;;
757;SDS011;363;48.764;9.172;2023-11-22T06:22:59;5.97;;;4.63;;
757;SDS011;363;48.764;9.172;2023-11-22T06:25:24;5.10;;;4.20;;
757;SDS011;363;48.764;9.172;2023-11-22T06:27:50;5.00;;;4.50;;
757;SDS011;363;48.764;9.172;2023-11-22T06:30:15;5.13;;;4.30;;
757;SDS011;363;48.764;9.172;2023-11-22T06:32:41;3.60;;;3.30;;
757;SDS011;363;48.764;9.172;2023-11-22T06:35:10;4.93;;;4.32;;
757;SDS011;363;48.764;9.172;2023-11-22T06:37:39;5.57;;;5.07;;
757;SDS011;363;48.764;9.172;2023-11-22T06:40:05;4.40;;;4.00;;
757;SDS011;363;48.764;9.172;2023-11-22T06:42:31;6.15;;;3.67;;
757;SDS011;363;48.764;9.172;2023-11-22T06:44:58;4.78;;;4.00;;
757;SDS011;363;48.764;9.172;2023-11-22T06:47:25;4.45;;;3.75;;
757;SDS011;363;48.764;9.172;2023-11-22T06:49:52;4.38;;;3.80;;
757;SDS011;363;48.764;9.172;2023-11-22T06:52:19;6.55;;;3.78;;
757;SDS011;363;48.764;9.172;2023-11-22T06:54:44;4.18;;;3.85;;
757;SDS011;363;48.764;9.172;2023-11-22T06:57:10;4.30;;;3.60;;
757;SDS011;363;48.764;9.172;2023-11-22T06:59:35;4.10;;;3.70;;
757;SDS011;363;48.764;9.172;2023-11-22T07:04:58;4.53;;;3.65;;
757;SDS011;363;48.764;9.172;2023-11-22T07:07:26;4.43;;;4.03;;
757;SDS011;363;48.764;9.172;2023-11-22T07:09:52;7.23;;;5.67;;
757;SDS011;363;48.764;9.172;2023-11-22T07:12:18;4.30;;;3.90;;
757;SDS011;363;48.764;9.172;2023-11-22T07:14:44;4.65;;;3.70;;
757;SDS011;363;48.764;9.172;2023-11-22T07:17:10;3.80;;;3.20;;
757;SDS011;363;48.764;9.172;2023-11-22T07:19:35;5.40;;;4.10;;
757;SDS011;363;48.764;9.172;2023-11-22T07:22:03;3.75;;;2.60;;
757;SDS011;363;48.764;9.172;2023-11-22T07:24:29;3.30;;;2.92;;
757;SDS011;363;48.764;9.172;2023-11-22T07:26:59;3.08;;;2.78;;
757;SDS011;363;48.764;9.172;2023-11-22T07:29:25;3.33;;;3.03;;
757;SDS011;363;48.764;9.172;2023-11-22T07:31:51;4.10;;;3.10;;
757;SDS011;363;48.764;9.172;2023-11-22T07:34:17;4.63;;;3.03;;
757;SDS011;363;48.764;9.172;2023-11-22T07:36:43;4.20;;;2.63;;
757;SDS011;363;48.764;9.172;2023-11-22T07:39:09;4.43;;;3.90;;
757;SDS011;363;48.764;9.172;2023-11-22T07:41:37;5.70;;;4.07;;
757;SDS011;363;48.764;9.172;2023-11-22T07:44:02;3.97;;;3.50;;
757;SDS011;363;48.764;9.172;2023-11-22T07:46:28;3.13;;;2.83;;
757;SDS011;363;48.764;9.172;2023-11-22T07:48:54;3.40;;;3.10;;
757;SDS011;363;48.764;9.172;2023-11-22T07:51:19;3.80;;;3.17;;
757;SDS011;363;48.764;9.172;2023-11-22T07:53:45;4.40;;;2.80;;
757;SDS011;363;48.764;9.172;2023-11-22T07:56:10;5.83;;;3.23;;
757;SDS011;363;48.764;9.172;2023-11-22T07:58:36;3.53;;;3.23;;
757;SDS011;363;48.764;9.172;2023-11-22T08:01:02;6.00;;;3.35;;
757;SDS011;363;48.764;9.172;2023-11-22T08:03:31;3.00;;;2.80;;
757;SDS011;363;48.764;9.172;2023-11-22T08:05:56;2.90;;;2.60;;
757;SDS011;363;48.764;9.172;2023-11-22T08:08:22;4.40;;;2.97;;
757;SDS011;363;48.764;9.172;2023-11-22T08:10:48;4.70;;;3.60;;
757;SDS011;363;48.764;9.172;2023-11-22T08:13:16;3.15;;;2.85;;
757;SDS011;363;48.764;9.172;2023-11-22T08:15:44;3.50;;;2.83;;
757;SDS011;363;48.764;9.172;2023-11-22T08:18:11;4.18;;;2.70;;
757;SDS011;363;48.764;9.172;2023-11-22T08:20:37;3.57;;;2.93;;
757;SDS011;363;48.764;9.172;2023-11-22T08:23:03;3.97;;;2.93;;
757;SDS011;363;48.764;9.172;2023-11-22T08:25:31;3.70;;;3.17;;
757;SDS011;363;48.764;9.172;2023-11-22T08:27:56;3.67;;;3.33;;
757;SDS011;363;48.764;9.172;2023-11-22T08:30:22;3.97;;;3.47;;
757;SDS011;363;48.764;9.172;2023-11-22T08:32:48;2.63;;;2.33;;
757;SDS011;363;48.764;9.172;2023-11-22T08:35:18;4.05;;;3.30;;
757;SDS011;363;48.764;9.172;2023-11-22T08:37:46;4.80;;;3.42;;
757;SDS011;363;48.764;9.172;2023-11-22T08:40:12;5.00;;;3.00;;
757;SDS011;363;48.764;9.172;2023-11-22T08:42:41;5.15;;;2.70;;
757;SDS011;363;48.764;9.172;2023-11-22T08:45:07;4.07;;;3.17;;
757;SDS011;363;48.764;9.172;2023-11-22T08:47:33;7.10;;;3.60;;
757;SDS011;363;48.764;9.172;2023-11-22T08:49:59;4.43;;;3.25;;
757;SDS011;363;48.764;9.172;2023-11-22T08:52:28;3.90;;;3.10;;
757;SDS011;363;48.764;9.172;2023-11-22T08:54:55;5.07;;;3.35;;
757;SDS011;363;48.764;9.172;2023-11-22T08:57:24;3.97;;;3.63;;
757;SDS011;363;48.764;9.172;2023-11-22T08:59:50;3.95;;;3.40;;
757;SDS011;363;48.764;9.172;2023-11-22T09:02:16;3.73;;;3.40;;
757;SDS011;363;48.764;9.172;2023-11-22T09:04:42;3.75;;;3.38;;
757;SDS011;363;48.764;9.172;2023-11-22T09:07:08;6.73;;;3.77;;
757;SDS011;363;48.764;9.172;2023-11-22T09:09:35;3.90;;;3.47;;
757;SDS011;363;48.764;9.172;2023-11-22T09:12:01;4.22;;;3.42;;
757;SDS011;363;48.764;9.172;2023-11-22T09:14:26;7.30;;;4.80;;
757;SDS011;363;48.764;9.172;2023-11-22T09:16:53;5.80;;;3.78;;
757;SDS011;363;48.764;9.172;2023-11-22T09:19:22;5.95;;;3.75;;
757;SDS011;363;48.764;9.172;2023-11-22T09:21:50;4.50;;;3.85;;
757;SDS011;363;48.764;9.172;2023-11-22T09:24:16;4.82;;;3.90;;
757;SDS011;363;48.764;9.172;2023-11-22T09:26:42;4.40;;;3.77;;
757;SDS011;363;48.764;9.172;2023-11-22T09:29:08;4.10;;;3.70;;
757;SDS011;363;48.764;9.172;2023-11-22T09:31:36;5.13;;;3.35;;
757;SDS011;363;48.764;9.172;2023-11-22T09:34:02;4.37;;;3.50;;
757;SDS011;363;48.764;9.172;2023-11-22T09:36:28;4.53;;;4.05;;
757;SDS011;363;48.764;9.172;2023-11-22T09:38:57;4.22;;;3.70;;
757;SDS011;363;48.764;9.172;2023-11-22T09:41:23;6.80;;;4.20;;
757;SDS011;363;48.764;9.172;2023-11-22T09:43:51;4.82;;;3.90;;
757;SDS011;363;48.764;9.172;2023-11-22T09:46:18;3.83;;;3.42;;
757;SDS011;363;48.764;9.172;2023-11-22T09:48:46;5.13;;;4.53;;
757;SDS011;363;48.764;9.172;2023-11-22T09:51:20;4.95;;;3.60;;
757;SDS011;363;48.764;9.172;2023-11-22T09:53:58;4.35;;;3.60;;
757;SDS011;363;48.764;9.172;2023-11-22T09:56:29;5.57;;;4.63;;
757;SDS011;363;48.764;9.172;2023-11-22T09:58:56;5.10;;;4.60;;
757;SDS011;363;48.764;9.172;2023-11-22T10:01:25;6.18;;;4.50;;
757;SDS011;363;48.764;9.172;2023-11-22T10:04:02;4.05;;;3.65;;
757;SDS011;363;48.764;9.172;2023-11-22T10:06:30;5.70;;;5.00;;
757;SDS011;363;48.764;9.172;2023-11-22T10:08:59;5.97;;;4.18;;
757;SDS011;363;48.764;9.172;2023-11-22T10:11:25;7.45;;;3.95;;
757;SDS011;363;48.764;9.172;2023-11-22T10:13:51;5.40;;;4.60;;
757;SDS011;363;48.764;9.172;2023-11-22T10:16:17;5.57;;;4.73;;
757;SDS011;363;48.764;9.172;2023-11-22T10:18:45;5.53;;;4.70;;
757;SDS011;363;48.764;9.172;2023-11-22T10:21:22;4.40;;;4.00;;
757;SDS011;363;48.764;9.172;2023-11-22T10:23:53;6.40;;;4.55;;
757;SDS011;363;48.764;9.172;2023-11-22T10:26:23;7.45;;;3.88;;
757;SDS011;363;48.764;9.172;2023-11-22T10:28:50;6.00;;;4.90;;
757;SDS011;363;48.764;9.172;2023-11-22T10:31:17;4.13;;;3.72;;
757;SDS011;363;48.764;9.172;2023-11-22T10:33:44;5.85;;;4.68;;
757;SDS011;363;48.764;9.172;2023-11-22T10:36:10;6.50;;;5.27;;
757;SDS011;363;48.764;9.172;2023-11-22T10:38:37;5.20;;;4.70;;
757;SDS011;363;48.764;9.172;2023-11-22T10:41:07;4.55;;;3.92;;
757;SDS011;363;48.764;9.172;2023-11-22T10:43:34;8.50;;;5.13;;
757;SDS011;363;48.764;9.172;2023-11-22T10:46:03;7.00;;;5.20;;
757;SDS011;363;48.764;9.172;2023-11-22T10:48:35;6.15;;;5.18;;
757;SDS011;363;48.764;9.172;2023-11-22T10:51:01;6.00;;;4.50;;
757;SDS011;363;48.764;9.172;2023-11-22T10:53:32;8.10;;;5.13;;
757;SDS011;363;48.764;9.172;2023-11-22T10:56:20;6.50;;;4.47;;
757;SDS011;363;48.764;9.172;2023-11-22T10:58:52;4.53;;;4.13;;
757;SDS011;363;48.764;9.172;2023-11-22T11:01:27;7.20;;;5.15;;
757;SDS011;363;48.764;9.172;2023-11-22T11:04:03;5.45;;;4.95;;
757;SDS011;363;48.764;9.172;2023-11-22T11:06:36;7.25;;;5.45;;
757;SDS011;363;48.764;9.172;2023-11-22T11:09:05;7.25;;;5.53;;
757;SDS011;363;48.764;9.172;2023-11-22T11:11:36;6.88;;;5.57;;
757;SDS011;363;48.764;9.172;2023-11-22T11:14:03;5.78;;;4.88;;
757;SDS011;363;48.764;9.172;2023-11-22T11:16:31;6.43;;;5.07;;
757;SDS011;363;48.764;9.172;2023-11-22T11:19:03;5.30;;;4.80;;
757;SDS011;363;48.764;9.172;2023-11-22T11:21:30;8.25;;;5.13;;
757;SDS011;363;48.764;9.172;2023-11-22T11:23:57;5.70;;;5.20;;
757;SDS011;363;48.764;9.172;2023-11-22T11:26:27;6.85;;;5.38;;
757;SDS011;363;48.764;9.172;2023-11-22T11:28:54;9.63;;;5.68;;
757;SDS011;363;48.764;9.172;2023-11-22T11:31:23;20.70;;;14.53;;
757;SDS011;363;48.764;9.172;2023-11-22T11:39:00;6.60;;;5.13;;
757;SDS011;363;48.764;9.172;2023-11-22T11:41:29;6.88;;;5.55;;
757;SDS011;363;48.764;9.172;2023-11-22T11:43:58;5.32;;;4.82;;
757;SDS011;363;48.764;9.172;2023-11-22T11:46:26;7.05;;;6.35;;
757;SDS011;363;48.764;9.172;2023-11-22T11:48:54;7.30;;;6.50;;
757;SDS011;363;48.764;9.172;2023-11-22T11:51:29;6.63;;;5.80;;
757;SDS011;363;48.764;9.172;2023-11-22T11:53:55;5.13;;;4.63;;
757;SDS011;363;48.764;9.172;2023-11-22T11:56:21;9.03;;;5.17;;
757;SDS011;363;48.764;9.172;2023-11-22T11:58:48;6.97;;;6.25;;
757;SDS011;363;48.764;9.172;2023-11-22T12:01:15;10.50;;;5.40;;
757;SDS011;363;48.764;9.172;2023-11-22T12:03:43;7.55;;;5.75;;
757;SDS011;363;48.764;9.172;2023-11-22T12:06:09;7.82;;;5.65;;
757;SDS011;363;48.764;9.172;2023-11-22T12:08:35;5.43;;;4.93;;
757;SDS011;363;48.764;9.172;2023-11-22T12:11:04;8.75;;;6.32;;
757;SDS011;363;48.764;9.172;2023-11-22T12:13:33;7.88;;;5.78;;
757;SDS011;363;48.764;9.172;2023-11-22T12:16:00;5.63;;;5.05;;
757;SDS011;363;48.764;9.172;2023-11-22T12:18:38;6.97;;;5.78;;
757;SDS011;363;48.764;9.172;2023-11-22T12:21:08;6.30;;;5.40;;
757;SDS011;363;48.764;9.172;2023-11-22T12:23:37;5.72;;;5.13;;
757;SDS011;363;48.764;9.172;2023-11-22T12:26:03;6.07;;;5.47;;
757;SDS011;363;48.764;9.172;2023-11-22T12:28:29;7.28;;;5.63;;
757;SDS011;363;48.764;9.172;2023-11-22T12:31:10;6.10;;;4.75;;
757;SDS011;363;48.764;9.172;2023-11-22T12:33:37;7.90;;;5.93;;
757;SDS011;363;48.764;9.172;2023-11-22T12:36:05;6.53;;;4.90;;
757;SDS011;363;48.764;9.172;2023-11-22T12:38:34;7.30;;;5.70;;
757;SDS011;363;48.764;9.172;2023-11-22T12:41:00;6.93;;;5.30;;
757;SDS011;363;48.764;9.172;2023-11-22T12:43:28;6.53;;;5.82;;
757;SDS011;363;48.764;9.172;2023-11-22T12:46:00;6.38;;;5.15;;
757;SDS011;363;48.764;9.172;2023-11-22T12:48:31;7.40;;;4.68;;
757;SDS011;363;48.764;9.172;2023-11-22T12:51:00;6.85;;;4.75;;
757;SDS011;363;48.764;9.172;2023-11-22T12:53:25;8.18;;;4.90;;
757;SDS011;363;48.764;9.172;2023-11-22T12:55:55;7.80;;;5.45;;
757;SDS011;363;48.764;9.172;2023-11-22T12:58:22;11.95;;;5.75;;
757;SDS011;363;48.764;9.172;2023-11-22T13:00:50;6.18;;;5.47;;
757;SDS011;363;48.764;9.172;2023-11-22T13:03:22;5.40;;;4.85;;
757;SDS011;363;48.764;9.172;2023-11-22T13:05:49;6.45;;;5.00;;
757;SDS011;363;48.764;9.172;2023-11-22T13:08:17;8.85;;;6.00;;
757;SDS011;363;48.764;9.172;2023-11-22T13:10:43;5.57;;;4.73;;
757;SDS011;363;48.764;9.172;2023-11-22T13:13:13;5.53;;;4.90;;
757;SDS011;363;48.764;9.172;2023-11-22T13:15:39;7.30;;;5.63;;
757;SDS011;363;48.764;9.172;2023-11-22T13:18:05;6.72;;;6.00;;
757;SDS011;363;48.764;9.172;2023-11-22T13:20:31;6.18;;;5.25;;
757;SDS011;363;48.764;9.172;2023-11-22T13:22:57;7.00;;;5.47;;
757;SDS011;363;48.764;9.172;2023-11-22T13:25:24;5.88;;;5.13;;
757;SDS011;363;48.764;9.172;2023-11-22T13:27:51;5.87;;;4.80;;
757;SDS011;363;48.764;9.172;2023-11-22T13:30:18;5.45;;;4.90;;
757;SDS011;363;48.764;9.172;2023-11-22T13:32:47;6.00;;;5.40;;
757;SDS011;363;48.764;9.172;2023-11-22T13:35:15;6.25;;;5.25;;
757;SDS011;363;48.764;9.172;2023-11-22T13:37:42;5.40;;;4.65;;
757;SDS011;363;48.764;9.172;2023-11-22T13:40:13;6.40;;;5.63;;
757;SDS011;363;48.764;9.172;2023-11-22T13:42:58;7.00;;;6.30;;
757;SDS011;363;48.764;9.172;2023-11-22T13:45:24;7.13;;;5.73;;
757;SDS011;363;48.764;9.172;2023-11-22T13:47:51;6.35;;;4.80;;
757;SDS011;363;48.764;9.172;2023-11-22T13:50:22;12.13;;;5.97;;
757;SDS011;363;48.764;9.172;2023-11-22T13:52:48;11.10;;;6.18;;
757;SDS011;363;48.764;9.172;2023-11-22T13:55:15;8.65;;;6.15;;
757;SDS011;363;48.764;9.172;2023-11-22T13:57:44;7.03;;;5.47;;
757;SDS011;363;48.764;9.172;2023-11-22T14:00:10;5.63;;;4.70;;
757;SDS011;363;48.764;9.172;2023-11-22T14:02:39;6.38;;;5.25;;
757;SDS011;363;48.764;9.172;2023-11-22T14:05:06;6.80;;;5.60;;
757;SDS011;363;48.764;9.172;2023-11-22T14:07:35;4.93;;;4.45;;
757;SDS011;363;48.764;9.172;2023-11-22T14:10:01;7.85;;;6.22;;
757;SDS011;363;48.764;9.172;2023-11-22T14:12:28;8.90;;;6.15;;
757;SDS011;363;48.764;9.172;2023-11-22T14:15:01;6.97;;;5.80;;
757;SDS011;363;48.764;9.172;2023-11-22T14:17:30;7.47;;;5.47;;
757;SDS011;363;48.764;9.172;2023-11-22T14:19:56;8.10;;;6.40;;
757;SDS011;363;48.764;9.172;2023-11-22T14:22:22;7.77;;;6.20;;
757;SDS011;363;48.764;9.172;2023-11-22T14:24:48;7.30;;;6.03;;
757;SDS011;363;48.764;9.172;2023-11-22T14:27:15;9.02;;;5.55;;
757;SDS011;363;48.764;9.172;2023-11-22T14:29:42;7.68;;;5.68;;
757;SDS011;363;48.764;9.172;2023-11-22T14:32:08;8.85;;;5.35;;
757;SDS011;363;48.764;9.172;2023-11-22T14:34:34;10.53;;;5.00;;
757;SDS011;363;48.764;9.172;2023-11-22T14:37:01;7.55;;;6.10;;
757;SDS011;363;48.764;9.172;2023-11-22T14:39:28;5.47;;;4.80;;
757;SDS011;363;48.764;9.172;2023-11-22T14:41:54;7.70;;;5.70;;
757;SDS011;363;48.764;9.172;2023-11-22T14:44:20;5.85;;;4.80;;
757;SDS011;363;48.764;9.172;2023-11-22T14:46:46;6.10;;;5.37;;
757;SDS011;363;48.764;9.172;2023-11-22T14:49:13;6.30;;;5.65;;
757;SDS011;363;48.764;9.172;2023-11-22T14:51:39;10.98;;;5.57;;
757;SDS011;363;48.764;9.172;2023-11-22T14:54:05;8.97;;;5.30;;
757;SDS011;363;48.764;9.172;2023-11-22T14:56:31;7.38;;;5.88;;
757;SDS011;363;48.764;9.172;2023-11-22T14:58:56;6.40;;;5.60;;
757;SDS011;363;48.764;9.172;2023-11-22T15:01:22;8.33;;;6.90;;
757;SDS011;363;48.764;9.172;2023-11-22T15:03:51;11.43;;;6.50;;
757;SDS011;363;48.764;9.172;2023-11-22T15:06:20;7.60;;;5.85;;
757;SDS011;363;48.764;9.172;2023-11-22T15:08:46;7.60;;;5.83;;
757;SDS011;363;48.764;9.172;2023-11-22T15:11:14;6.97;;;5.10;;
757;SDS011;363;48.764;9.172;2023-11-22T15:13:43;7.55;;;6.45;;
757;SDS011;363;48.764;9.172;2023-11-22T15:16:09;7.55;;;4.93;;
757;SDS011;363;48.764;9.172;2023-11-22T15:18:37;9.23;;;6.18;;
757;SDS011;363;48.764;9.172;2023-11-22T15:21:04;7.00;;;5.55;;
757;SDS011;363;48.764;9.172;2023-11-22T15:23:30;45.53;;;10.67;;
757;SDS011;363;48.764;9.172;2023-11-22T15:25:56;6.23;;;5.63;;
757;SDS011;363;48.764;9.172;2023-11-22T15:28:23;7.80;;;5.57;;
757;SDS011;363;48.764;9.172;2023-11-22T15:30:49;7.00;;;5.47;;
757;SDS011;363;48.764;9.172;2023-11-22T15:33:21;6.80;;;5.53;;
757;SDS011;363;48.764;9.172;2023-11-22T15:38:15;7.60;;;5.50;;
757;SDS011;363;48.764;9.172;2023-11-22T15:40:41;8.97;;;6.30;;
757;SDS011;363;48.764;9.172;2023-11-22T15:43:07;7.13;;;5.85;;
757;SDS011;363;48.764;9.172;2023-11-22T15:45:33;8.05;;;5.40;;
757;SDS011;363;48.764;9.172;2023-11-22T15:48:00;7.55;;;5.20;;
757;SDS011;363;48.764;9.172;2023-11-22T15:50:26;8.70;;;6.78;;
757;SDS011;363;48.764;9.172;2023-11-22T15:52:52;5.87;;;5.23;;
757;SDS011;363;48.764;9.172;2023-11-22T15:55:19;6.70;;;5.40;;